createdAt,value
2019-02-14T00:01:46.456Z,74.27
2019-02-14T00:04:18.503Z,74.08
2019-02-14T00:06:50.524Z,73.98
2019-02-14T00:09:22.532Z,74.09
2019-02-14T00:11:54.557Z,74.41
2019-02-14T00:14:26.564Z,74.51
2019-02-14T00:16:58.568Z,74.57
2019-02-14T00:19:30.682Z,74.90
2019-02-14T00:22:03.345Z,75.07
2019-02-14T00:24:39.050Z,75.03
2019-02-14T00:27:12.441Z,75.20
2019-02-14T00:30:04.834Z,74.93
2019-02-14T00:32:37.572Z,75.28
2019-02-14T00:35:11.856Z,75.30
2019-02-14T00:37:45.880Z,75.24
2019-02-14T00:40:19.041Z,75.09
2019-02-14T00:42:52.463Z,75.49
2019-02-14T00:45:24.805Z,75.59
2019-02-14T00:47:58.142Z,75.65
2019-02-14T00:50:31.623Z,75.41
2019-02-14T00:53:04.763Z,75.58
2019-02-14T00:55:38.652Z,75.65
2019-02-14T00:58:13.835Z,75.64
2019-02-14T01:00:47.573Z,75.86
2019-02-14T01:03:21.112Z,76.07
2019-02-14T01:05:54.427Z,76.16
2019-02-14T01:08:28.235Z,76.14
2019-02-14T01:11:01.416Z,76.21
2019-02-14T01:13:35.390Z,76.02
2019-02-14T01:16:08.225Z,75.97
2019-02-14T01:21:35.222Z,75.96
2019-02-14T01:24:07.524Z,75.88
2019-02-14T01:26:59.918Z,75.90
2019-02-14T01:29:32.088Z,75.78
2019-02-14T01:32:04.057Z,76.04
2019-02-14T01:34:36.046Z,75.85
2019-02-14T01:37:08.009Z,75.94
2019-02-14T01:39:40.022Z,76.17
2019-02-14T01:45:04.577Z,76.60
2019-02-14T01:50:21.904Z,76.12
2019-02-14T01:52:53.850Z,76.27
2019-02-14T01:55:25.841Z,76.19
2019-02-14T01:57:57.819Z,76.54
2019-02-14T02:00:49.286Z,76.79
2019-02-14T02:03:21.269Z,76.85
2019-02-14T02:06:12.830Z,76.79
2019-02-14T02:08:44.883Z,76.96
2019-02-14T02:11:16.901Z,77.03
2019-02-14T02:13:48.893Z,76.60
2019-02-14T02:16:20.867Z,76.59
2019-02-14T02:18:52.855Z,76.19
2019-02-14T02:21:44.404Z,75.80
2019-02-14T02:24:16.366Z,75.84
2019-02-14T02:27:07.902Z,75.53
2019-02-14T02:29:39.859Z,75.71
2019-02-14T02:32:11.866Z,75.78
2019-02-14T02:34:43.825Z,76.14
2019-02-14T02:37:15.832Z,76.33
2019-02-14T02:39:47.793Z,76.35
2019-02-14T02:42:39.437Z,76.85
2019-02-14T02:45:52.457Z,76.60
2019-02-14T02:48:24.448Z,76.67
2019-02-14T02:50:56.437Z,77.09
2019-02-14T02:53:28.411Z,77.23
2019-02-14T02:56:00.400Z,77.24
2019-02-14T02:58:32.537Z,77.12
2019-02-14T03:01:04.503Z,77.47
2019-02-14T03:03:56.061Z,78.02
2019-02-14T03:06:28.037Z,78.02
2019-02-14T03:09:00.046Z,78.22
2019-02-14T03:11:51.488Z,78.42
2019-02-14T03:14:23.468Z,78.54
2019-02-14T03:17:14.994Z,78.67
2019-02-14T03:19:46.974Z,78.55
2019-02-14T03:22:18.966Z,78.16
2019-02-14T03:24:50.948Z,78.37
2019-02-14T03:27:23.001Z,78.12
2019-02-14T03:29:55.038Z,78.28
2019-02-14T03:32:27.032Z,78.27
2019-02-14T03:34:59.037Z,78.14
2019-02-14T03:37:31.054Z,78.19
2019-02-14T03:40:43.910Z,77.94
2019-02-14T03:43:15.879Z,77.51
2019-02-14T03:45:47.862Z,77.50
2019-02-14T03:48:19.839Z,77.78
2019-02-14T03:50:51.845Z,77.68
2019-02-14T03:53:24.145Z,77.79
2019-02-14T03:55:56.203Z,77.99
2019-02-14T03:58:28.179Z,77.78
2019-02-14T04:01:00.206Z,78.06
2019-02-14T04:03:32.228Z,78.20
2019-02-14T04:06:04.231Z,78.57
2019-02-14T04:08:36.324Z,78.40
2019-02-14T04:11:08.375Z,78.23
2019-02-14T04:13:40.341Z,78.56
2019-02-14T04:16:12.380Z,78.58
2019-02-14T04:18:44.358Z,78.54
2019-02-14T04:21:16.358Z,78.84
2019-02-14T04:23:48.350Z,78.80
2019-02-14T04:26:20.335Z,78.68
2019-02-14T04:28:52.314Z,78.67
2019-02-14T04:31:24.367Z,78.74
2019-02-14T04:33:56.334Z,78.66
2019-02-14T04:36:35.839Z,78.73
2019-02-14T04:41:55.793Z,78.58
2019-02-14T04:44:27.815Z,78.69
2019-02-14T04:46:59.819Z,78.56
2019-02-14T04:49:31.811Z,78.34
2019-02-14T04:52:03.785Z,78.37
2019-02-14T04:54:35.760Z,78.30
2019-02-14T04:57:07.754Z,78.09
2019-02-14T04:59:39.700Z,77.81
2019-02-14T05:02:11.711Z,77.74
2019-02-14T05:04:43.720Z,77.44
2019-02-14T05:07:35.288Z,77.41
2019-02-14T05:13:20.308Z,77.80
2019-02-14T05:19:05.267Z,78.13
2019-02-14T05:21:37.250Z,77.84
2019-02-14T05:24:09.251Z,77.99
2019-02-14T05:26:41.209Z,78.06
2019-02-14T05:29:13.205Z,77.94
2019-02-14T05:31:45.193Z,78.12
2019-02-14T05:34:17.214Z,78.11
2019-02-14T05:36:53.682Z,78.02
2019-02-14T05:39:23.105Z,77.30
2019-02-14T05:41:55.086Z,77.73
2019-02-14T05:44:46.566Z,77.56
2019-02-14T05:47:18.564Z,77.83
2019-02-14T05:49:50.564Z,78.01
2019-02-14T05:52:22.568Z,78.04
2019-02-14T05:54:54.565Z,77.66
2019-02-14T05:57:27.399Z,77.99
2019-02-14T06:00:20.021Z,77.54
2019-02-14T06:03:11.550Z,77.32
2019-02-14T06:05:43.530Z,77.47
2019-02-14T06:08:15.544Z,77.67
2019-02-14T06:10:47.570Z,77.79
2019-02-14T06:13:19.578Z,77.65
2019-02-14T06:15:51.594Z,77.77
2019-02-14T06:18:23.609Z,77.85
2019-02-14T06:20:55.622Z,77.74
2019-02-14T06:23:27.611Z,77.56
2019-02-14T06:25:59.713Z,77.59
2019-02-14T06:28:31.725Z,77.79
2019-02-14T06:31:03.735Z,78.06
2019-02-14T06:33:35.696Z,78.00
2019-02-14T06:36:07.728Z,77.78
2019-02-14T06:38:39.692Z,77.87
2019-02-14T06:41:11.673Z,77.81
2019-02-14T06:43:43.660Z,77.26
2019-02-14T06:46:15.646Z,77.14
2019-02-14T06:48:47.622Z,77.20
2019-02-14T06:51:19.633Z,77.00
2019-02-14T06:53:51.622Z,77.09
2019-02-14T06:56:23.624Z,76.82
2019-02-14T06:58:55.601Z,76.62
2019-02-14T07:01:27.700Z,76.87
2019-02-14T07:03:59.671Z,76.80
2019-02-14T07:06:31.664Z,76.54
2019-02-14T07:09:44.453Z,76.64
2019-02-14T07:12:36.010Z,77.32
2019-02-14T07:15:09.041Z,77.33
2019-02-14T07:17:41.022Z,77.76
2019-02-14T07:20:13.409Z,77.47
2019-02-14T07:22:45.406Z,77.58
2019-02-14T07:25:17.619Z,77.37
2019-02-14T07:27:49.649Z,77.09
2019-02-14T07:30:21.770Z,77.24
2019-02-14T07:32:53.779Z,77.47
2019-02-14T07:35:25.736Z,77.38
2019-02-14T07:37:58.232Z,77.45
2019-02-14T07:40:30.215Z,77.31
2019-02-14T07:43:02.229Z,76.99
2019-02-14T07:45:34.238Z,77.20
2019-02-14T07:48:06.270Z,77.09
2019-02-14T07:50:38.247Z,76.98
2019-02-14T07:53:10.246Z,77.05
2019-02-14T07:55:42.254Z,77.06
2019-02-14T07:58:14.236Z,76.71
2019-02-14T08:00:46.214Z,76.43
2019-02-14T08:03:18.197Z,76.07
2019-02-14T08:05:50.184Z,74.07
2019-02-14T08:08:22.216Z,74.19
2019-02-14T08:10:54.168Z,72.71
2019-02-14T08:13:26.179Z,72.64
2019-02-14T08:15:58.159Z,71.35
2019-02-14T08:18:30.464Z,70.59
2019-02-14T08:21:02.477Z,69.42
2019-02-14T08:23:34.472Z,68.54
2019-02-14T08:26:10.901Z,68.33
2019-02-14T08:28:40.389Z,68.61
2019-02-14T08:31:12.386Z,69.09
2019-02-14T08:33:44.365Z,68.40
2019-02-14T08:36:16.393Z,67.96
2019-02-14T08:38:48.369Z,68.44
2019-02-14T08:41:20.354Z,68.76
2019-02-14T08:43:52.308Z,68.99
2019-02-14T08:46:24.277Z,68.62
2019-02-14T08:48:56.264Z,67.67
2019-02-14T08:51:28.287Z,68.16
2019-02-14T08:54:00.263Z,68.33
2019-02-14T08:56:32.250Z,68.38
2019-02-14T08:59:04.224Z,68.02
2019-02-14T09:01:36.212Z,67.39
2019-02-14T09:04:08.177Z,67.43
2019-02-14T09:06:40.212Z,66.80
2019-02-14T09:09:12.238Z,66.96
2019-02-14T09:11:44.225Z,69.60
2019-02-14T09:14:16.245Z,68.50
2019-02-14T09:16:48.567Z,67.71
2019-02-14T09:19:20.584Z,66.79
2019-02-14T09:21:52.611Z,66.05
2019-02-14T09:24:24.558Z,65.93
2019-02-14T09:26:56.566Z,64.98
2019-02-14T09:29:28.555Z,64.75
2019-02-14T09:32:00.548Z,65.92
2019-02-14T09:34:32.529Z,66.16
2019-02-14T09:37:04.635Z,65.90
2019-02-14T09:39:40.891Z,65.65
2019-02-14T09:42:10.518Z,65.31
2019-02-14T09:44:42.512Z,64.58
2019-02-14T09:47:14.528Z,64.52
2019-02-14T09:49:46.505Z,64.21
2019-02-14T09:52:18.519Z,63.70
2019-02-14T09:54:50.514Z,63.47
2019-02-14T09:57:22.493Z,62.54
2019-02-14T09:59:54.459Z,62.70
2019-02-14T10:02:26.470Z,61.75
2019-02-14T10:04:58.433Z,60.90
2019-02-14T10:07:30.429Z,57.94
2019-02-14T10:10:02.759Z,58.10
2019-02-14T10:12:34.781Z,56.93
2019-02-14T10:15:07.372Z,56.02
2019-02-14T10:17:39.377Z,53.91
2019-02-14T10:20:13.126Z,51.91
2019-02-14T10:22:45.142Z,50.65
2019-02-14T10:25:17.164Z,50.42
2019-02-14T10:27:49.166Z,50.63
2019-02-14T10:30:21.201Z,48.37
2019-02-14T10:32:53.210Z,48.13
2019-02-14T10:35:25.204Z,49.26
2019-02-14T10:37:57.230Z,50.48
2019-02-14T10:40:29.226Z,50.78
2019-02-14T10:43:01.225Z,50.16
2019-02-14T10:45:33.257Z,50.43
2019-02-14T10:48:05.291Z,50.31
2019-02-14T10:50:37.279Z,49.26
2019-02-14T10:53:09.288Z,48.64
2019-02-14T10:55:41.240Z,48.41
2019-02-14T10:58:13.268Z,48.70
2019-02-14T11:00:45.411Z,49.12
2019-02-14T11:03:17.449Z,48.20
2019-02-14T11:05:49.412Z,48.40
2019-02-14T11:08:21.439Z,48.27
2019-02-14T11:10:53.450Z,48.15
2019-02-14T11:13:25.451Z,48.27
2019-02-14T11:15:57.460Z,48.39
2019-02-14T11:18:29.456Z,46.15
2019-02-14T11:21:01.477Z,46.57
2019-02-14T11:23:33.505Z,45.92
2019-02-14T11:26:05.484Z,44.47
2019-02-14T11:28:37.508Z,45.22
2019-02-14T11:31:09.511Z,45.22
2019-02-14T11:33:41.526Z,44.91
2019-02-14T11:36:13.552Z,44.85
2019-02-14T11:38:45.568Z,45.70
2019-02-14T11:41:17.555Z,45.72
2019-02-14T11:43:49.569Z,45.80
2019-02-14T11:46:21.590Z,45.92
2019-02-14T11:48:53.612Z,45.19
2019-02-14T11:51:25.620Z,45.19
2019-02-14T11:53:57.621Z,45.51
2019-02-14T11:56:29.651Z,45.33
2019-02-14T11:59:01.629Z,45.49
2019-02-14T12:01:33.675Z,45.61
2019-02-14T12:04:05.696Z,45.15
2019-02-14T12:06:37.837Z,44.17
2019-02-14T12:09:09.902Z,44.35
2019-02-14T12:11:41.886Z,44.13
2019-02-14T12:14:13.881Z,44.32
2019-02-14T12:16:45.910Z,44.84
2019-02-14T12:19:17.883Z,44.37
2019-02-14T12:21:49.897Z,44.42
2019-02-14T12:24:21.890Z,44.16
2019-02-14T12:26:53.903Z,44.18
2019-02-14T12:29:25.914Z,42.58
2019-02-14T12:31:57.920Z,43.38
2019-02-14T12:34:29.912Z,43.01
2019-02-14T12:37:02.040Z,43.09
2019-02-14T12:39:34.045Z,43.35
2019-02-14T12:42:06.074Z,43.18
2019-02-14T12:44:38.072Z,43.06
2019-02-14T12:47:10.105Z,43.09
2019-02-14T12:49:42.080Z,42.87
2019-02-14T12:52:14.161Z,42.93
2019-02-14T12:54:46.113Z,42.10
2019-02-14T12:57:18.111Z,42.13
2019-02-14T12:59:50.075Z,42.65
2019-02-14T13:02:22.200Z,43.22
2019-02-14T13:04:54.174Z,43.80
2019-02-14T13:07:26.238Z,42.86
2019-02-14T13:09:58.257Z,43.43
2019-02-14T13:12:30.268Z,42.96
2019-02-14T13:15:02.310Z,43.33
2019-02-14T13:17:34.348Z,43.48
2019-02-14T13:20:06.802Z,43.53
2019-02-14T13:22:38.893Z,43.89
2019-02-14T13:25:11.611Z,42.73
2019-02-14T13:27:43.649Z,43.22
2019-02-14T13:30:17.811Z,42.53
2019-02-14T13:32:49.843Z,42.67
2019-02-14T13:35:21.845Z,42.64
2019-02-14T13:37:53.870Z,42.67
2019-02-14T13:40:25.844Z,41.68
2019-02-14T13:42:57.880Z,42.67
2019-02-14T13:45:29.858Z,42.71
2019-02-14T13:48:01.925Z,42.20
2019-02-14T13:50:34.036Z,41.82
2019-02-14T13:53:06.091Z,40.95
2019-02-14T13:55:38.125Z,41.47
2019-02-14T13:58:10.094Z,39.76
2019-02-14T14:00:42.098Z,39.41
2019-02-14T14:03:14.052Z,39.97
2019-02-14T14:05:46.071Z,39.24
2019-02-14T14:08:18.050Z,39.22
2019-02-14T14:10:50.112Z,39.15
2019-02-14T14:13:22.128Z,38.82
2019-02-14T14:15:54.089Z,37.78
2019-02-14T14:18:26.089Z,36.96
2019-02-14T14:21:01.006Z,35.00
2019-02-14T14:23:32.993Z,32.86
2019-02-14T14:26:05.019Z,34.41
2019-02-14T14:28:37.038Z,34.73
2019-02-14T14:31:09.064Z,28.98
2019-02-14T14:33:41.077Z,28.70
2019-02-14T14:36:13.100Z,28.46
2019-02-14T14:38:45.103Z,27.71
2019-02-14T14:41:17.151Z,28.49
2019-02-14T14:44:07.397Z,27.02
2019-02-14T14:47:05.168Z,28.42
2019-02-14T14:49:37.175Z,26.20
2019-02-14T14:52:09.192Z,29.82
2019-02-14T14:54:41.166Z,31.60
2019-02-14T14:57:13.178Z,32.99
2019-02-14T14:59:45.174Z,31.83
2019-02-14T15:02:17.181Z,31.09
2019-02-14T15:04:49.168Z,28.59
2019-02-14T15:07:21.215Z,27.87
2019-02-14T15:09:57.576Z,28.49
2019-02-14T15:12:27.179Z,29.65
2019-02-14T15:14:59.203Z,30.52
2019-02-14T15:17:33.179Z,30.88
2019-02-14T15:20:05.423Z,30.36
2019-02-14T15:22:37.466Z,30.41
2019-02-14T15:25:09.466Z,30.98
2019-02-14T15:27:41.470Z,31.59
2019-02-14T15:30:13.473Z,32.09
2019-02-14T15:32:45.467Z,31.69
2019-02-14T15:35:17.459Z,31.98
2019-02-14T15:37:49.485Z,32.77
2019-02-14T15:40:21.500Z,33.21
2019-02-14T15:42:53.503Z,32.90
2019-02-14T15:45:25.556Z,34.20
2019-02-14T15:47:57.684Z,34.25
2019-02-14T15:50:30.385Z,35.18
2019-02-14T15:53:04.235Z,36.48
2019-02-14T15:55:36.214Z,37.47
2019-02-14T15:58:09.259Z,39.03
2019-02-14T16:00:41.518Z,39.70
2019-02-14T16:03:15.321Z,40.25
2019-02-14T16:05:47.530Z,40.91
2019-02-14T16:08:21.802Z,41.12
2019-02-14T16:10:55.723Z,41.80
2019-02-14T16:13:29.130Z,42.52
2019-02-14T16:16:01.439Z,43.55
2019-02-14T16:18:33.488Z,44.58
2019-02-14T16:21:06.135Z,45.17
2019-02-14T16:23:39.491Z,46.44
2019-02-14T16:26:12.957Z,46.44
2019-02-14T16:28:45.486Z,48.09
2019-02-14T16:31:17.496Z,48.09
2019-02-14T16:33:49.567Z,48.86
2019-02-14T16:36:22.841Z,49.37
2019-02-14T16:38:56.483Z,49.84
2019-02-14T16:41:29.331Z,50.10
2019-02-14T16:44:01.356Z,50.77
2019-02-14T16:46:33.409Z,51.36
2019-02-14T16:49:05.456Z,51.61
2019-02-14T16:51:37.463Z,52.47
2019-02-14T16:54:09.546Z,52.90
2019-02-14T16:56:41.597Z,53.13
2019-02-14T16:59:13.597Z,53.51
2019-02-14T17:01:45.640Z,53.54
2019-02-14T17:04:18.358Z,53.74
2019-02-14T17:06:50.442Z,53.47
2019-02-14T17:09:22.409Z,53.61
2019-02-14T17:11:54.441Z,53.87
2019-02-14T17:14:28.235Z,53.55
2019-02-14T17:17:00.276Z,53.30
2019-02-14T17:19:32.328Z,53.50
2019-02-14T17:22:06.333Z,53.41
2019-02-14T17:24:38.354Z,54.03
2019-02-14T17:27:10.475Z,54.86
2019-02-14T17:29:42.583Z,55.51
2019-02-14T17:32:14.604Z,55.71
2019-02-14T17:34:46.624Z,56.20
2019-02-14T17:37:18.689Z,56.07
2019-02-14T17:39:50.850Z,53.60
2019-02-14T17:42:23.062Z,53.05
2019-02-14T17:44:55.062Z,53.68
2019-02-14T17:47:27.205Z,53.81
2019-02-14T17:50:02.989Z,53.17
2019-02-14T17:52:35.051Z,53.33
2019-02-14T17:55:07.423Z,54.02
2019-02-14T17:57:39.522Z,54.47
2019-02-14T18:00:11.702Z,54.97
2019-02-14T18:02:43.770Z,55.76
2019-02-14T18:05:15.831Z,56.34
2019-02-14T18:07:47.841Z,56.56
2019-02-14T18:10:20.012Z,56.82
2019-02-14T18:12:53.950Z,57.01
2019-02-14T18:15:26.004Z,57.73
2019-02-14T18:17:58.026Z,58.00
2019-02-14T18:20:30.141Z,57.99
2019-02-14T18:23:02.199Z,57.74
2019-02-14T18:25:34.204Z,57.75
2019-02-14T18:28:06.331Z,57.70
2019-02-14T18:30:39.473Z,57.47
2019-02-14T18:33:11.537Z,57.50
2019-02-14T18:35:43.732Z,57.50
2019-02-14T18:38:15.924Z,57.84
2019-02-14T18:40:47.985Z,58.35
2019-02-14T18:43:20.009Z,58.98
2019-02-14T18:45:52.042Z,59.31
2019-02-14T18:48:24.242Z,59.67
2019-02-14T18:50:56.371Z,60.17
2019-02-14T18:53:28.524Z,60.56
2019-02-14T18:56:00.604Z,60.77
2019-02-14T18:58:32.652Z,61.05
2019-02-14T19:01:04.788Z,61.32
2019-02-14T19:03:36.866Z,61.68
2019-02-14T19:06:08.998Z,61.89
2019-02-14T19:08:40.972Z,62.42
2019-02-14T19:11:15.143Z,62.54
2019-02-14T19:13:47.097Z,62.53
2019-02-14T19:16:19.157Z,62.76
2019-02-14T19:18:51.287Z,62.80
2019-02-14T19:21:23.357Z,62.79
2019-02-14T19:23:55.468Z,63.05
2019-02-14T19:26:27.511Z,63.48
2019-02-14T19:28:59.573Z,63.36
2019-02-14T19:31:31.607Z,63.40
2019-02-14T19:34:03.664Z,63.60
2019-02-14T19:36:35.815Z,63.96
2019-02-14T19:39:09.264Z,64.21
2019-02-14T19:41:41.324Z,64.65
2019-02-14T19:44:13.349Z,65.00
2019-02-14T19:46:49.602Z,65.26
2019-02-14T19:49:21.357Z,65.51
2019-02-14T19:51:53.437Z,65.81
2019-02-14T19:54:25.669Z,66.00
2019-02-14T19:56:57.826Z,65.98
2019-02-14T19:59:30.309Z,66.51
2019-02-14T20:02:02.406Z,66.38
2019-02-14T20:04:34.499Z,67.02
2019-02-14T20:07:06.737Z,67.22
2019-02-14T20:09:41.527Z,67.69
2019-02-14T20:12:12.954Z,67.43
2019-02-14T20:14:45.039Z,67.64
2019-02-14T20:17:17.089Z,67.76
2019-02-14T20:19:49.192Z,67.79
2019-02-14T20:22:21.234Z,67.95
2019-02-14T20:24:53.322Z,68.00
2019-02-14T20:27:25.361Z,67.92
2019-02-14T20:29:57.524Z,67.99
2019-02-14T20:32:29.736Z,68.13
2019-02-14T20:35:02.175Z,68.58
2019-02-14T20:37:34.404Z,68.91
2019-02-14T20:40:06.805Z,69.09
2019-02-14T20:42:38.935Z,69.13
2019-02-14T20:45:11.361Z,68.95
2019-02-14T20:47:43.429Z,69.46
2019-02-14T20:50:15.613Z,70.10
2019-02-14T20:52:47.643Z,70.20
2019-02-14T20:55:19.832Z,70.08
2019-02-14T20:57:51.842Z,70.27
2019-02-14T21:00:28.046Z,70.07
2019-02-14T21:03:00.064Z,70.06
2019-02-14T21:05:32.259Z,69.99
2019-02-14T21:08:06.367Z,70.43
2019-02-14T21:10:38.431Z,70.83
2019-02-14T21:13:10.466Z,70.47
2019-02-14T21:15:42.526Z,70.80
2019-02-14T21:18:15.664Z,70.54
2019-02-14T21:20:47.728Z,70.91
2019-02-14T21:23:19.921Z,70.63
2019-02-14T21:25:51.951Z,70.72
2019-02-14T21:28:24.275Z,70.23
2019-02-14T21:30:56.283Z,70.30
2019-02-14T21:33:28.337Z,70.31
2019-02-14T21:36:00.660Z,70.26
2019-02-14T21:38:32.705Z,70.40
2019-02-14T21:41:04.791Z,70.61
2019-02-14T21:43:37.067Z,70.64
2019-02-14T21:46:09.220Z,70.71
2019-02-14T21:48:41.220Z,70.61
2019-02-14T21:51:13.248Z,70.63
2019-02-14T21:53:45.458Z,70.57
2019-02-14T21:56:17.614Z,70.60
2019-02-14T21:58:49.579Z,70.57
2019-02-14T22:01:24.284Z,70.01
2019-02-14T22:03:56.341Z,70.38
2019-02-14T22:06:28.504Z,70.43
2019-02-14T22:09:00.545Z,70.45
2019-02-14T22:11:34.504Z,70.45
2019-02-14T22:14:06.672Z,70.52
2019-02-14T22:16:38.777Z,70.33
2019-02-14T22:19:10.753Z,70.50
2019-02-14T22:21:42.759Z,70.57
2019-02-14T22:24:14.763Z,70.63
2019-02-14T22:26:46.784Z,70.86
2019-02-14T22:29:18.843Z,70.94
2019-02-14T22:31:50.851Z,70.94
2019-02-14T22:34:22.854Z,70.95
2019-02-14T22:36:54.893Z,71.33
2019-02-14T22:39:26.962Z,71.58
2019-02-14T22:41:59.168Z,71.53
2019-02-14T22:44:31.187Z,71.05
2019-02-14T22:47:03.198Z,71.25
2019-02-14T22:49:35.214Z,71.36
2019-02-14T22:52:07.202Z,71.41
2019-02-14T22:54:41.961Z,71.39
2019-02-14T22:57:13.965Z,70.84
2019-02-14T22:59:45.971Z,71.24
2019-02-14T23:02:18.489Z,71.46
2019-02-14T23:04:50.547Z,71.78
2019-02-14T23:07:22.536Z,71.84
2019-02-14T23:09:54.630Z,71.52
2019-02-14T23:12:26.598Z,71.84
2019-02-14T23:14:58.647Z,72.07
2019-02-14T23:17:30.629Z,71.74
2019-02-14T23:20:02.675Z,71.74
2019-02-14T23:22:34.676Z,71.65
2019-02-14T23:25:06.692Z,71.59
2019-02-14T23:27:38.661Z,71.66
2019-02-14T23:30:12.596Z,71.53
2019-02-14T23:32:44.602Z,71.19
2019-02-14T23:35:16.613Z,71.43
2019-02-14T23:37:48.583Z,71.54
2019-02-14T23:40:20.597Z,71.57
2019-02-14T23:42:52.612Z,71.53
2019-02-14T23:45:24.628Z,71.91
2019-02-14T23:47:56.651Z,72.24
2019-02-14T23:50:28.668Z,72.19
2019-02-14T23:53:00.781Z,72.44
2019-02-14T23:55:32.784Z,72.27
2019-02-14T23:58:04.848Z,72.39
